createdAt,value
2019-05-26T00:00:36.333Z,12.80
2019-05-26T00:03:04.928Z,12.80
2019-05-26T00:05:33.336Z,12.90
2019-05-26T00:08:01.753Z,12.90
2019-05-26T00:10:30.168Z,12.90
2019-05-26T00:12:58.583Z,12.90
2019-05-26T00:15:27.009Z,12.90
2019-05-26T00:17:55.426Z,12.90
2019-05-26T00:20:23.842Z,12.80
2019-05-26T00:22:52.308Z,12.80
2019-05-26T00:25:20.925Z,12.80
2019-05-26T00:27:49.336Z,12.80
2019-05-26T00:30:18.193Z,12.80
2019-05-26T00:32:46.612Z,12.80
2019-05-26T00:35:15.274Z,12.80
2019-05-26T00:37:49.918Z,12.70
2019-05-26T00:40:14.210Z,12.80
2019-05-26T00:42:42.693Z,12.70
2019-05-26T00:45:11.450Z,12.70
2019-05-26T00:47:40.036Z,12.70
2019-05-26T00:50:09.686Z,12.60
2019-05-26T00:52:38.429Z,12.70
2019-05-26T00:55:07.922Z,12.70
2019-05-26T00:57:36.722Z,12.70
2019-05-26T01:00:09.961Z,12.70
2019-05-26T01:02:38.459Z,12.70
2019-05-26T01:05:08.946Z,12.70
2019-05-26T01:07:38.332Z,12.70
2019-05-26T01:10:10.141Z,12.60
2019-05-26T01:12:38.604Z,12.60
2019-05-26T01:15:08.086Z,12.60
2019-05-26T01:17:36.581Z,12.60
2019-05-26T01:20:06.543Z,12.60
2019-05-26T01:22:34.966Z,12.50
2019-05-26T01:25:04.940Z,12.60
2019-05-26T01:27:33.364Z,12.60
2019-05-26T01:30:01.790Z,12.50
2019-05-26T01:32:30.187Z,12.50
2019-05-26T01:34:58.604Z,12.50
2019-05-26T01:37:27.209Z,12.50
2019-05-26T01:39:55.672Z,12.50
2019-05-26T01:42:24.096Z,12.50
2019-05-26T01:44:52.504Z,12.50
2019-05-26T01:47:20.937Z,12.60
2019-05-26T01:49:49.339Z,12.60
2019-05-26T01:52:17.761Z,12.60
2019-05-26T01:54:46.189Z,12.50
2019-05-26T01:57:14.600Z,12.50
2019-05-26T01:59:43.027Z,12.50
2019-05-26T02:02:11.461Z,12.50
2019-05-26T02:04:39.874Z,12.50
2019-05-26T02:07:08.288Z,12.50
2019-05-26T02:09:36.768Z,12.50
2019-05-26T02:12:05.561Z,12.50
2019-05-26T02:14:33.979Z,12.40
2019-05-26T02:17:02.460Z,12.40
2019-05-26T02:19:30.876Z,12.40
2019-05-26T02:21:59.302Z,12.40
2019-05-26T02:24:27.727Z,12.40
2019-05-26T02:26:56.137Z,12.50
2019-05-26T02:29:24.554Z,12.50
2019-05-26T02:31:53.010Z,12.50
2019-05-26T02:34:21.453Z,12.40
2019-05-26T02:36:49.878Z,12.40
2019-05-26T02:39:18.359Z,12.40
2019-05-26T02:41:46.780Z,12.40
2019-05-26T02:44:15.193Z,12.40
2019-05-26T02:46:43.674Z,12.30
2019-05-26T02:49:12.089Z,12.30
2019-05-26T02:51:40.507Z,12.40
2019-05-26T02:54:08.912Z,12.40
2019-05-26T02:56:37.638Z,12.40
2019-05-26T02:59:06.032Z,12.40
2019-05-26T03:01:34.612Z,12.40
2019-05-26T03:04:03.136Z,12.40
2019-05-26T03:06:33.849Z,12.40
2019-05-26T03:09:21.054Z,12.30
2019-05-26T03:11:35.097Z,12.30
2019-05-26T03:14:04.869Z,12.30
2019-05-26T03:16:36.516Z,12.30
2019-05-26T03:19:05.780Z,12.40
2019-05-26T03:21:35.152Z,12.30
2019-05-26T03:24:04.688Z,12.40
2019-05-26T03:26:33.183Z,12.40
2019-05-26T03:29:01.581Z,12.40
2019-05-26T03:31:30.159Z,12.40
2019-05-26T03:33:58.596Z,12.30
2019-05-26T03:36:27.004Z,12.40
2019-05-26T03:38:55.416Z,12.30
2019-05-26T03:41:23.821Z,12.30
2019-05-26T03:43:52.245Z,12.30
2019-05-26T03:46:21.018Z,12.30
2019-05-26T03:48:50.170Z,12.30
2019-05-26T03:51:19.071Z,12.30
2019-05-26T03:53:47.636Z,12.40
2019-05-26T03:56:16.108Z,12.40
2019-05-26T03:58:44.713Z,12.50
2019-05-26T04:01:13.180Z,12.40
2019-05-26T04:03:41.671Z,12.40
2019-05-26T04:06:10.244Z,12.40
2019-05-26T04:08:38.652Z,12.40
2019-05-26T04:11:07.130Z,12.40
2019-05-26T04:13:35.535Z,12.30
2019-05-26T04:16:04.117Z,12.40
2019-05-26T04:18:32.528Z,12.40
2019-05-26T04:21:00.946Z,12.50
2019-05-26T04:23:29.350Z,12.50
2019-05-26T04:25:57.790Z,12.50
2019-05-26T04:28:26.183Z,12.40
2019-05-26T04:30:54.606Z,12.40
2019-05-26T04:33:23.015Z,12.40
2019-05-26T04:35:51.523Z,12.50
2019-05-26T04:38:20.011Z,12.50
2019-05-26T04:40:48.428Z,12.40
2019-05-26T04:43:16.873Z,12.50
2019-05-26T04:45:45.304Z,12.60
2019-05-26T04:48:22.614Z,12.60
2019-05-26T04:50:51.051Z,12.70
2019-05-26T04:53:19.503Z,12.70
2019-05-26T04:55:47.945Z,12.60
2019-05-26T04:58:16.361Z,12.60
2019-05-26T05:00:44.832Z,12.70
2019-05-26T05:03:13.315Z,12.70
2019-05-26T05:05:41.821Z,12.70
2019-05-26T05:08:10.224Z,12.70
2019-05-26T05:10:42.715Z,12.80
2019-05-26T05:13:08.784Z,12.80
2019-05-26T05:15:37.221Z,12.90
2019-05-26T05:18:05.638Z,13.00
2019-05-26T05:20:34.331Z,13.00
2019-05-26T05:23:22.124Z,13.00
2019-05-26T05:25:50.545Z,13.00
2019-05-26T05:28:18.968Z,13.00
2019-05-26T05:30:47.550Z,13.10
2019-05-26T05:33:15.972Z,13.20
2019-05-26T05:35:44.385Z,13.20
2019-05-26T05:38:12.807Z,13.30
2019-05-26T05:40:57.992Z,13.30
2019-05-26T05:43:11.356Z,13.50
2019-05-26T05:45:39.862Z,13.60
2019-05-26T05:48:08.332Z,13.60
2019-05-26T05:50:39.083Z,13.60
2019-05-26T05:53:06.880Z,13.60
2019-05-26T05:55:35.279Z,13.60
2019-05-26T05:58:03.925Z,13.70
2019-05-26T06:00:32.366Z,13.80
2019-05-26T06:03:00.772Z,13.90
2019-05-26T06:05:29.181Z,13.90
2019-05-26T06:07:57.601Z,14.00
2019-05-26T06:10:26.032Z,14.10
2019-05-26T06:12:54.448Z,14.20
2019-05-26T06:15:23.093Z,14.10
2019-05-26T06:17:51.502Z,14.30
2019-05-26T06:20:21.203Z,14.40
2019-05-26T06:22:49.642Z,14.50
2019-05-26T06:25:18.521Z,14.60
2019-05-26T06:27:47.360Z,14.70
2019-05-26T06:30:16.058Z,14.60
2019-05-26T06:32:44.483Z,14.70
2019-05-26T06:35:13.231Z,14.80
2019-05-26T06:37:41.645Z,14.90
2019-05-26T06:40:10.700Z,14.80
2019-05-26T06:42:39.127Z,14.80
2019-05-26T06:45:08.009Z,14.90
2019-05-26T06:47:36.427Z,15.00
2019-05-26T06:50:08.774Z,15.20
2019-05-26T06:52:37.191Z,15.40
2019-05-26T06:55:06.843Z,15.40
2019-05-26T06:57:35.260Z,15.40
2019-05-26T07:00:07.513Z,15.20
2019-05-26T07:02:35.929Z,15.30
2019-05-26T07:05:06.971Z,15.40
2019-05-26T07:07:35.476Z,15.50
2019-05-26T07:10:05.659Z,15.40
2019-05-26T07:12:34.113Z,15.10
2019-05-26T07:15:02.593Z,14.90
2019-05-26T07:17:31.020Z,15.10
2019-05-26T07:19:59.437Z,15.60
2019-05-26T07:22:27.947Z,15.90
2019-05-26T07:24:56.358Z,16.00
2019-05-26T07:27:24.768Z,16.00
2019-05-26T07:29:53.196Z,15.80
2019-05-26T07:32:21.600Z,15.90
2019-05-26T07:34:50.044Z,16.10
2019-05-26T07:37:18.462Z,16.30
2019-05-26T07:39:46.870Z,16.10
2019-05-26T07:42:15.314Z,16.30
2019-05-26T07:44:43.777Z,16.60
2019-05-26T07:47:12.782Z,16.70
2019-05-26T07:49:41.249Z,16.60
2019-05-26T07:52:09.683Z,17.00
2019-05-26T07:54:38.100Z,17.00
2019-05-26T07:57:06.525Z,17.00
2019-05-26T07:59:35.617Z,17.10
2019-05-26T08:02:04.414Z,17.20
2019-05-26T08:04:32.821Z,17.30
2019-05-26T08:07:01.240Z,17.20
2019-05-26T08:09:29.664Z,17.40
2019-05-26T08:11:58.080Z,17.50
2019-05-26T08:14:26.504Z,17.60
2019-05-26T08:16:54.934Z,17.60
2019-05-26T08:19:23.425Z,17.40
2019-05-26T08:21:54.562Z,17.40
2019-05-26T08:24:22.032Z,17.30
2019-05-26T08:26:50.436Z,17.30
2019-05-26T08:29:18.894Z,17.40
2019-05-26T08:31:47.296Z,17.30
2019-05-26T08:34:15.740Z,17.40
2019-05-26T08:36:44.283Z,17.50
2019-05-26T08:39:12.740Z,17.60
2019-05-26T08:41:41.137Z,17.80
2019-05-26T08:44:09.568Z,17.60
2019-05-26T08:46:37.968Z,17.40
2019-05-26T08:49:06.392Z,17.60
2019-05-26T08:51:37.915Z,17.50
2019-05-26T08:54:06.340Z,17.50
2019-05-26T08:56:34.753Z,17.70
2019-05-26T08:59:03.233Z,18.00
2019-05-26T09:01:31.646Z,18.40
2019-05-26T09:04:00.065Z,18.20
2019-05-26T09:06:28.488Z,18.10
2019-05-26T09:08:56.888Z,18.20
2019-05-26T09:11:25.483Z,18.20
2019-05-26T09:13:53.884Z,18.10
2019-05-26T09:16:22.379Z,18.40
2019-05-26T09:18:50.788Z,18.60
2019-05-26T09:21:19.222Z,18.30
2019-05-26T09:23:47.669Z,18.70
2019-05-26T09:26:16.143Z,18.90
2019-05-26T09:28:44.541Z,19.10
2019-05-26T09:31:12.970Z,19.00
2019-05-26T09:33:41.368Z,19.30
2019-05-26T09:36:09.823Z,19.00
2019-05-26T09:38:38.289Z,19.10
2019-05-26T09:41:06.692Z,19.40
2019-05-26T09:43:35.110Z,19.30
2019-05-26T09:46:03.595Z,19.40
2019-05-26T09:48:32.026Z,19.30
2019-05-26T09:51:00.430Z,19.50
2019-05-26T09:53:28.843Z,19.60
2019-05-26T09:55:57.258Z,19.60
2019-05-26T09:58:25.677Z,19.80
2019-05-26T10:00:54.080Z,20.10
2019-05-26T10:03:22.497Z,20.00
2019-05-26T10:05:50.919Z,20.00
2019-05-26T10:08:19.317Z,20.00
2019-05-26T10:10:47.804Z,20.00
2019-05-26T10:13:29.143Z,19.50
2019-05-26T10:15:46.437Z,19.40
2019-05-26T10:18:14.853Z,19.70
2019-05-26T10:20:43.437Z,19.60
2019-05-26T10:23:11.842Z,19.80
2019-05-26T10:25:40.336Z,19.30
2019-05-26T10:28:08.776Z,19.30
2019-05-26T10:30:37.208Z,19.50
2019-05-26T10:33:05.629Z,19.60
2019-05-26T10:35:34.040Z,19.90
2019-05-26T10:38:02.466Z,20.30
2019-05-26T10:40:30.868Z,20.20
2019-05-26T10:42:59.282Z,20.10
2019-05-26T10:45:27.709Z,20.10
2019-05-26T10:47:56.121Z,20.30
2019-05-26T10:50:24.689Z,20.50
2019-05-26T10:52:53.233Z,20.50
2019-05-26T10:55:21.633Z,20.40
2019-05-26T10:57:50.048Z,20.40
2019-05-26T11:00:19.089Z,20.40
2019-05-26T11:02:47.492Z,20.60
2019-05-26T11:05:16.867Z,20.80
2019-05-26T11:07:45.272Z,20.60
2019-05-26T11:10:14.341Z,20.80
2019-05-26T11:12:42.772Z,20.80
2019-05-26T11:15:11.749Z,20.90
2019-05-26T11:17:40.148Z,20.60
2019-05-26T11:20:09.292Z,20.50
2019-05-26T11:22:37.721Z,20.50
2019-05-26T11:25:09.636Z,20.60
2019-05-26T11:27:38.057Z,20.80
2019-05-26T11:30:09.675Z,21.30
2019-05-26T11:32:38.110Z,21.70
2019-05-26T11:35:07.160Z,21.90
2019-05-26T11:37:35.744Z,21.90
2019-05-26T11:40:08.591Z,22.10
2019-05-26T11:42:37.168Z,21.90
2019-05-26T11:45:07.418Z,22.30
2019-05-26T11:47:35.835Z,22.40
2019-05-26T11:50:09.488Z,22.20
2019-05-26T11:52:37.985Z,22.00
2019-05-26T11:55:09.529Z,22.10
2019-05-26T11:57:37.973Z,22.30
2019-05-26T12:00:09.014Z,22.70
2019-05-26T12:02:38.338Z,22.90
2019-05-26T12:05:07.989Z,22.70
2019-05-26T12:07:36.441Z,22.20
2019-05-26T12:10:06.410Z,21.90
2019-05-26T12:12:34.901Z,21.80
2019-05-26T12:15:04.920Z,22.30
2019-05-26T12:17:33.346Z,23.20
2019-05-26T12:20:05.054Z,23.20
2019-05-26T12:22:31.925Z,22.80
2019-05-26T12:25:00.335Z,22.30
2019-05-26T12:27:30.375Z,21.70
2019-05-26T12:29:59.764Z,21.20
2019-05-26T12:32:28.172Z,21.30
2019-05-26T12:34:56.640Z,21.20
2019-05-26T12:37:25.045Z,21.80
2019-05-26T12:39:53.464Z,22.10
2019-05-26T12:42:21.888Z,22.70
2019-05-26T12:44:50.329Z,22.40
2019-05-26T12:47:18.723Z,22.60
2019-05-26T12:49:47.149Z,22.90
2019-05-26T12:52:15.898Z,23.10
2019-05-26T12:54:44.308Z,23.20
2019-05-26T12:57:12.716Z,23.10
2019-05-26T12:59:41.142Z,22.80
2019-05-26T13:02:09.546Z,22.70
2019-05-26T13:04:38.004Z,22.70
2019-05-26T13:07:06.420Z,23.10
2019-05-26T13:09:37.607Z,23.40
2019-05-26T13:12:06.025Z,23.70
2019-05-26T13:14:34.488Z,23.10
2019-05-26T13:17:02.897Z,23.30
2019-05-26T13:19:31.308Z,23.20
2019-05-26T13:21:59.716Z,22.90
2019-05-26T13:24:28.150Z,23.30
2019-05-26T13:26:56.562Z,23.50
2019-05-26T13:29:26.018Z,23.70
2019-05-26T13:31:54.785Z,23.70
2019-05-26T13:34:23.279Z,23.30
2019-05-26T13:36:51.690Z,23.50
2019-05-26T13:39:20.107Z,23.20
2019-05-26T13:41:48.613Z,22.70
2019-05-26T13:44:17.101Z,23.20
2019-05-26T13:46:45.546Z,22.80
2019-05-26T13:49:14.075Z,22.80
2019-05-26T13:51:42.665Z,23.10
2019-05-26T13:54:11.075Z,23.80
2019-05-26T13:56:39.503Z,23.90
2019-05-26T13:59:07.908Z,23.60
2019-05-26T14:01:36.320Z,24.00
2019-05-26T14:04:05.358Z,24.10
2019-05-26T14:06:33.840Z,23.90
2019-05-26T14:09:02.425Z,23.90
2019-05-26T14:11:30.955Z,23.30
2019-05-26T14:13:59.461Z,23.80
2019-05-26T14:16:29.868Z,23.50
2019-05-26T14:18:59.815Z,23.70
2019-05-26T14:21:28.234Z,24.30
2019-05-26T14:23:56.717Z,25.30
2019-05-26T14:26:25.158Z,25.80
2019-05-26T14:28:53.549Z,25.40
2019-05-26T14:31:21.952Z,25.10
2019-05-26T14:33:50.397Z,24.20
2019-05-26T14:36:18.814Z,24.40
2019-05-26T14:38:47.688Z,23.90
2019-05-26T14:41:16.107Z,23.40
2019-05-26T14:43:44.536Z,23.60
2019-05-26T14:46:13.009Z,23.50
2019-05-26T14:48:41.587Z,23.70
2019-05-26T14:51:10.135Z,23.80
2019-05-26T14:53:38.653Z,23.90
2019-05-26T14:56:07.064Z,24.00
2019-05-26T14:58:35.477Z,24.20
2019-05-26T15:01:03.979Z,24.40
2019-05-26T15:03:32.626Z,23.80
2019-05-26T15:06:05.795Z,24.10
2019-05-26T15:08:31.279Z,24.00
2019-05-26T15:10:59.680Z,24.00
2019-05-26T15:13:28.165Z,23.80
2019-05-26T15:16:09.288Z,23.50
2019-05-26T15:18:26.732Z,23.80
2019-05-26T15:20:56.231Z,24.00
2019-05-26T15:23:24.873Z,23.90
2019-05-26T15:25:53.367Z,23.50
2019-05-26T15:28:21.781Z,23.40
2019-05-26T15:30:50.201Z,24.00
2019-05-26T15:33:18.629Z,24.10
2019-05-26T15:35:47.123Z,24.30
2019-05-26T15:38:15.616Z,24.70
2019-05-26T15:40:44.047Z,25.60
2019-05-26T15:43:12.450Z,25.90
2019-05-26T15:45:40.860Z,25.40
2019-05-26T15:48:09.269Z,24.90
2019-05-26T15:50:37.689Z,25.00
2019-05-26T15:53:06.088Z,25.20
2019-05-26T15:55:34.539Z,26.40
2019-05-26T15:58:02.950Z,27.30
2019-05-26T16:00:31.378Z,27.50
2019-05-26T16:02:59.780Z,27.60
2019-05-26T16:05:28.209Z,26.00
2019-05-26T16:07:56.604Z,25.60
2019-05-26T16:10:25.072Z,25.80
2019-05-26T16:12:53.496Z,26.10
2019-05-26T16:15:22.096Z,27.30
2019-05-26T16:17:50.504Z,26.70
2019-05-26T16:20:19.069Z,25.60
2019-05-26T16:22:47.477Z,26.30
2019-05-26T16:25:16.825Z,26.70
2019-05-26T16:27:45.250Z,26.70
2019-05-26T16:30:13.917Z,26.90
2019-05-26T16:32:42.328Z,27.40
2019-05-26T16:35:10.748Z,27.40
2019-05-26T16:37:39.163Z,28.00
2019-05-26T16:40:08.726Z,28.10
2019-05-26T16:42:37.213Z,27.80
2019-05-26T16:45:09.692Z,27.50
2019-05-26T16:47:38.103Z,28.10
2019-05-26T16:50:07.768Z,28.40
2019-05-26T16:52:36.211Z,28.10
2019-05-26T16:55:06.177Z,26.30
2019-05-26T16:57:34.585Z,26.90
2019-05-26T17:00:03.197Z,28.10
2019-05-26T17:02:31.606Z,28.10
2019-05-26T17:05:00.028Z,27.00
2019-05-26T17:07:28.446Z,27.60
2019-05-26T17:09:56.872Z,28.00
2019-05-26T17:12:25.285Z,28.60
2019-05-26T17:14:53.702Z,28.80
2019-05-26T17:17:22.110Z,28.50
2019-05-26T17:19:52.786Z,27.20
2019-05-26T17:22:20.864Z,27.90
2019-05-26T17:24:49.328Z,27.80
2019-05-26T17:27:17.754Z,27.20
2019-05-26T17:29:46.158Z,27.50
2019-05-26T17:32:14.572Z,28.00
2019-05-26T17:34:42.989Z,27.20
2019-05-26T17:37:11.395Z,27.60
2019-05-26T17:39:39.827Z,27.40
2019-05-26T17:42:08.249Z,27.70
2019-05-26T17:44:36.676Z,27.60
2019-05-26T17:47:05.088Z,27.20
2019-05-26T17:49:33.972Z,27.30
2019-05-26T17:52:02.390Z,26.60
2019-05-26T17:54:30.882Z,26.50
2019-05-26T17:56:59.295Z,25.70
2019-05-26T17:59:27.732Z,25.00
2019-05-26T18:01:56.195Z,24.40
2019-05-26T18:04:24.616Z,23.90
2019-05-26T18:06:53.029Z,23.00
2019-05-26T18:09:21.428Z,22.60
2019-05-26T18:11:49.856Z,22.20
2019-05-26T18:14:18.272Z,22.00
2019-05-26T18:16:46.688Z,21.40
2019-05-26T18:19:15.089Z,21.00
2019-05-26T18:21:43.519Z,20.90
2019-05-26T18:24:11.949Z,20.90
2019-05-26T18:26:40.361Z,20.90
2019-05-26T18:29:08.811Z,20.70
2019-05-26T18:31:37.221Z,20.50
2019-05-26T18:34:05.744Z,20.40
2019-05-26T18:36:34.148Z,20.30
2019-05-26T18:39:02.644Z,20.00
2019-05-26T18:41:31.154Z,19.80
2019-05-26T18:43:59.994Z,19.40
2019-05-26T18:46:28.844Z,19.40
2019-05-26T18:48:57.940Z,19.30
2019-05-26T18:51:26.615Z,19.30
2019-05-26T18:53:55.615Z,19.30
2019-05-26T18:56:24.249Z,19.20
2019-05-26T18:58:52.929Z,19.10
2019-05-26T19:01:21.558Z,19.10
2019-05-26T19:03:50.462Z,19.00
2019-05-26T19:06:19.056Z,18.90
2019-05-26T19:08:47.622Z,18.80
2019-05-26T19:11:16.295Z,18.80
2019-05-26T19:13:45.306Z,18.70
2019-05-26T19:16:14.403Z,18.60
2019-05-26T19:18:43.496Z,18.50
2019-05-26T19:21:12.798Z,18.40
2019-05-26T19:23:41.995Z,18.30
2019-05-26T19:26:11.430Z,18.00
2019-05-26T19:28:40.595Z,17.80
2019-05-26T19:31:09.695Z,17.60
2019-05-26T19:33:38.985Z,17.40
2019-05-26T19:36:09.615Z,17.20
2019-05-26T19:38:39.370Z,17.10
2019-05-26T19:41:09.060Z,17.10
2019-05-26T19:43:38.442Z,17.10
2019-05-26T19:46:08.168Z,17.00
2019-05-26T19:48:37.862Z,16.90
2019-05-26T19:51:06.954Z,16.90
2019-05-26T19:53:36.050Z,16.80
2019-05-26T19:56:05.598Z,16.70
2019-05-26T19:58:35.073Z,16.60
2019-05-26T20:01:05.100Z,16.50
2019-05-26T20:03:34.584Z,16.40
2019-05-26T20:06:04.162Z,16.30
2019-05-26T20:08:34.072Z,16.20
2019-05-26T20:11:03.092Z,16.10
2019-05-26T20:13:32.294Z,16.00
2019-05-26T20:16:01.803Z,15.90
2019-05-26T20:18:30.899Z,15.90
2019-05-26T20:21:00.499Z,15.70
2019-05-26T20:23:29.496Z,15.70
2019-05-26T20:25:58.295Z,15.60
2019-05-26T20:28:27.036Z,15.60
2019-05-26T20:30:55.744Z,15.60
2019-05-26T20:33:24.278Z,15.80
2019-05-26T20:35:52.825Z,15.60
2019-05-26T20:38:21.227Z,15.40
2019-05-26T20:40:49.683Z,15.30
2019-05-26T20:43:18.151Z,15.30
2019-05-26T20:45:46.568Z,15.20
2019-05-26T20:48:14.993Z,15.10
2019-05-26T20:50:43.422Z,15.10
2019-05-26T20:53:11.900Z,15.10
2019-05-26T20:55:40.320Z,15.10
2019-05-26T20:58:08.762Z,15.10
2019-05-26T21:00:37.484Z,15.10
2019-05-26T21:03:06.043Z,15.20
2019-05-26T21:05:34.445Z,15.20
2019-05-26T21:08:02.882Z,15.10
2019-05-26T21:10:31.289Z,15.10
2019-05-26T21:12:59.772Z,15.00
2019-05-26T21:15:28.187Z,14.90
2019-05-26T21:17:56.600Z,14.80
2019-05-26T21:20:25.007Z,14.70
2019-05-26T21:22:53.436Z,14.70
2019-05-26T21:25:21.924Z,14.60
2019-05-26T21:27:50.359Z,14.70
2019-05-26T21:30:19.435Z,14.70
2019-05-26T21:32:47.843Z,14.60
2019-05-26T21:35:16.276Z,14.50
2019-05-26T21:37:44.724Z,14.50
2019-05-26T21:40:14.183Z,14.40
2019-05-26T21:42:42.598Z,14.50
2019-05-26T21:45:11.643Z,14.50
2019-05-26T21:47:40.062Z,14.40
2019-05-26T21:50:10.029Z,14.40
2019-05-26T21:52:38.711Z,14.30
2019-05-26T21:55:08.346Z,14.20
2019-05-26T21:57:36.781Z,14.20
2019-05-26T22:00:10.832Z,14.10
2019-05-26T22:02:38.460Z,14.10
2019-05-26T22:05:08.410Z,14.20
2019-05-26T22:07:36.820Z,14.30
2019-05-26T22:10:06.349Z,14.30
2019-05-26T22:12:34.748Z,14.20
2019-05-26T22:15:06.296Z,14.10
2019-05-26T22:17:34.720Z,14.10
2019-05-26T22:20:04.294Z,14.10
2019-05-26T22:22:32.711Z,14.10
2019-05-26T22:25:01.139Z,14.10
2019-05-26T22:27:29.540Z,14.00
2019-05-26T22:29:57.961Z,13.90
2019-05-26T22:32:26.386Z,13.90
2019-05-26T22:34:54.791Z,13.80
2019-05-26T22:37:23.236Z,13.70
2019-05-26T22:39:51.660Z,13.70
2019-05-26T22:42:20.101Z,13.80
2019-05-26T22:44:48.513Z,13.70
2019-05-26T22:47:16.924Z,13.70
2019-05-26T22:49:45.332Z,13.70
2019-05-26T22:52:17.410Z,13.70
2019-05-26T22:54:43.892Z,13.70
2019-05-26T22:57:12.327Z,13.60
2019-05-26T22:59:40.731Z,13.50
2019-05-26T23:02:09.160Z,13.50
2019-05-26T23:04:37.569Z,13.40
2019-05-26T23:07:06.165Z,13.40
2019-05-26T23:09:34.568Z,13.30
2019-05-26T23:12:02.980Z,13.30
2019-05-26T23:14:31.396Z,13.30
2019-05-26T23:16:59.804Z,13.20
2019-05-26T23:19:28.227Z,13.10
2019-05-26T23:21:56.649Z,13.10
2019-05-26T23:24:25.137Z,13.10
2019-05-26T23:26:53.560Z,13.10
2019-05-26T23:29:21.966Z,13.00
2019-05-26T23:31:50.388Z,13.00
2019-05-26T23:34:18.805Z,13.00
2019-05-26T23:36:47.220Z,13.00
2019-05-26T23:39:15.941Z,12.80
2019-05-26T23:41:44.660Z,12.70
2019-05-26T23:44:13.068Z,12.70
2019-05-26T23:46:41.485Z,12.60
2019-05-26T23:49:09.896Z,12.50
2019-05-26T23:51:38.327Z,12.50
2019-05-26T23:54:06.736Z,12.40
2019-05-26T23:56:35.154Z,12.40
2019-05-26T23:59:03.596Z,12.30
